Time,TemperatureF,DewpointF,PressureIn,WindDirection,WindDirectionDegrees,WindSpeedMPH,WindSpeedGustMPH,Humidity,HourlyPrecipIn,Conditions,Clouds,dailyrainin,SoftwareType,DateUTC
2019-06-06 00:00:48,61.9,58,28.93,NE,41,0,0,86,0,,,0,weatherlink.com 1.10,2019-06-06 05:00:48,
2019-06-06 00:15:50,61.3,58,28.93,NE,41,0,1,88,0,,,0,weatherlink.com 1.10,2019-06-06 05:15:50,
2019-06-06 00:30:52,60.8,58,28.93,NE,41,0,0,89,0,,,0,weatherlink.com 1.10,2019-06-06 05:30:52,
2019-06-06 00:45:54,60.3,57,28.93,NE,41,0,1,90,0,,,0,weatherlink.com 1.10,2019-06-06 05:45:54,
2019-06-06 01:00:57,59.5,57,28.93,NE,41,0,0,90,0,,,0,weatherlink.com 1.10,2019-06-06 06:00:57,
2019-06-06 01:15:59,59,56,28.93,NE,41,0,0,91,0,,,0,weatherlink.com 1.10,2019-06-06 06:15:59,
2019-06-06 01:30:00,58.4,56,28.93,NE,41,0,0,91,0,,,0,weatherlink.com 1.10,2019-06-06 06:30:00,
2019-06-06 01:45:02,58.2,56,28.93,NE,41,0,1,92,0,,,0,weatherlink.com 1.10,2019-06-06 06:45:02,
2019-06-06 02:00:04,57.6,55,28.93,NE,41,0,0,92,0,,,0,weatherlink.com 1.10,2019-06-06 07:00:04,
2019-06-06 02:15:07,57,55,28.93,NE,41,0,0,93,0,,,0,weatherlink.com 1.10,2019-06-06 07:15:07,
2019-06-06 02:30:08,56.7,55,28.93,NE,41,0,0,93,0,,,0,weatherlink.com 1.10,2019-06-06 07:30:08,
2019-06-06 02:45:10,56.1,54,28.93,NE,41,0,0,93,0,,,0,weatherlink.com 1.10,2019-06-06 07:45:10,
2019-06-06 03:00:13,55.4,54,28.93,NE,41,0,0,94,0,,,0,weatherlink.com 1.10,2019-06-06 08:00:13,
2019-06-06 03:15:15,55.1,54,28.93,NE,41,0,0,94,0,,,0,weatherlink.com 1.10,2019-06-06 08:15:15,
2019-06-06 03:30:17,54.7,53,28.93,NE,41,0,0,94,0,,,0,weatherlink.com 1.10,2019-06-06 08:30:17,
2019-06-06 03:45:17,54.7,53,28.93,NE,41,0,0,95,0,,,0,weatherlink.com 1.10,2019-06-06 08:45:17,
2019-06-06 04:00:18,54.6,53,28.93,NE,41,0,0,95,0,,,0,weatherlink.com 1.10,2019-06-06 09:00:18,
2019-06-06 04:15:19,54.2,53,28.93,NE,41,0,0,95,0,,,0,weatherlink.com 1.10,2019-06-06 09:15:19,
2019-06-06 04:30:22,53.3,52,28.93,NE,41,0,0,95,0,,,0,weatherlink.com 1.10,2019-06-06 09:30:22,
2019-06-06 04:45:22,53.4,52,28.93,NE,41,0,0,95,0,,,0,weatherlink.com 1.10,2019-06-06 09:45:22,
2019-06-06 05:00:24,53.2,52,28.94,NE,41,0,0,95,0,,,0,weatherlink.com 1.10,2019-06-06 10:00:24,
2019-06-06 05:15:26,52.8,52,28.95,NE,41,0,0,96,0,,,0,weatherlink.com 1.10,2019-06-06 10:15:26,
2019-06-06 05:30:28,52.6,52,28.95,NE,41,0,0,96,0,,,0,weatherlink.com 1.10,2019-06-06 10:30:28,
2019-06-06 05:45:29,52.5,51,28.95,NE,41,0,0,96,0,,,0,weatherlink.com 1.10,2019-06-06 10:45:29,
2019-06-06 06:00:30,52.1,51,28.94,NE,41,0,0,96,0,,,0,weatherlink.com 1.10,2019-06-06 11:00:30,
2019-06-06 06:15:31,52.8,52,28.94,NE,41,0,0,96,0,,,0,weatherlink.com 1.10,2019-06-06 11:15:31,
2019-06-06 06:30:32,53.7,53,28.95,NE,41,0,0,97,0,,,0,weatherlink.com 1.10,2019-06-06 11:30:32,
2019-06-06 06:45:32,54.6,54,28.95,NE,41,0,0,97,0,,,0,weatherlink.com 1.10,2019-06-06 11:45:32,
2019-06-06 07:00:34,57.3,57,28.96,NE,41,0,0,97,0,,,0,weatherlink.com 1.10,2019-06-06 12:00:34,
2019-06-06 07:15:37,59.4,58,28.96,ESE,120,0,2,96,0,,,0,weatherlink.com 1.10,2019-06-06 12:15:37,
2019-06-06 07:30:38,61.1,59,28.96,ESE,106,2,4,94,0,,,0,weatherlink.com 1.10,2019-06-06 12:30:38,
2019-06-06 07:45:39,62.9,60,28.95,ESE,113,1,3,91,0,,,0,weatherlink.com 1.10,2019-06-06 12:45:39,
2019-06-06 08:00:44,65.1,61,28.95,ESE,112,0,3,86,0,,,0,weatherlink.com 1.10,2019-06-06 13:00:44,
2019-06-06 08:15:48,67.2,61,28.95,ESE,114,1,3,81,0,,,0,weatherlink.com 1.10,2019-06-06 13:15:48,
2019-06-06 08:30:51,68.5,60,28.95,ESE,110,1,5,74,0,,,0,weatherlink.com 1.10,2019-06-06 13:30:51,
2019-06-06 08:45:54,69.5,61,28.95,SW,219,2,6,73,0,,,0,weatherlink.com 1.10,2019-06-06 13:45:54,
2019-06-06 09:00:59,70.7,62,28.95,ESE,108,3,5,73,0,,,0,weatherlink.com 1.10,2019-06-06 14:00:59,
2019-06-06 09:15:00,71.6,61,28.95,SSE,149,1,5,69,0,,,0,weatherlink.com 1.10,2019-06-06 14:15:00,
2019-06-06 09:30:02,71.8,61,28.95,SSE,151,2,4,69,0,,,0,weatherlink.com 1.10,2019-06-06 14:30:02,
2019-06-06 09:45:09,73.4,61,28.95,WNW,290,2,4,65,0,,,0,weatherlink.com 1.10,2019-06-06 14:45:09,
2019-06-06 10:00:09,74.1,61,28.95,SE,138,2,4,63,0,,,0,weatherlink.com 1.10,2019-06-06 15:00:09,
2019-06-06 10:15:11,75.2,61,28.95,NW,314,1,2,61,0,,,0,weatherlink.com 1.10,2019-06-06 15:15:11,
2019-06-06 10:30:14,76.1,61,28.95,South,181,1,3,59,0,,,0,weatherlink.com 1.10,2019-06-06 15:30:14,
2019-06-06 10:45:18,76.9,59,28.95,SE,142,1,5,55,0,,,0,weatherlink.com 1.10,2019-06-06 15:45:18,
2019-06-06 11:00:21,77.7,59,28.94,SW,236,1,4,52,0,,,0,weatherlink.com 1.10,2019-06-06 16:00:21,
2019-06-06 11:30:23,78.1,59,28.94,South,180,2,5,53,0,,,0,weatherlink.com 1.10,2019-06-06 16:30:23,
2019-06-06 11:45:26,79.2,59,28.95,West,263,1,5,50,0,,,0,weatherlink.com 1.10,2019-06-06 16:45:26,
2019-06-06 12:00:29,80.1,60,28.95,South,180,4,5,50,0,,,0,weatherlink.com 1.10,2019-06-06 17:00:29,
2019-06-06 12:15:32,80.6,57,28.94,WSW,250,0,7,44,0,,,0,weatherlink.com 1.10,2019-06-06 17:15:32,
2019-06-06 12:30:33,81,56,28.94,WSW,241,5,6,42,0,,,0,weatherlink.com 1.10,2019-06-06 17:30:33,
2019-06-06 12:45:35,81.9,53,28.93,WSW,251,3,7,37,0,,,0,weatherlink.com 1.10,2019-06-06 17:45:35,
2019-06-06 13:00:38,82.7,57,28.94,SE,134,1,6,42,0,,,0,weatherlink.com 1.10,2019-06-06 18:00:38,
2019-06-06 13:15:40,83.2,56,28.94,SW,217,5,7,39,0,,,0,weatherlink.com 1.10,2019-06-06 18:15:40,
2019-06-06 13:30:41,83.7,56,28.93,WSW,257,2,5,39,0,,,0,weatherlink.com 1.10,2019-06-06 18:30:41,
2019-06-06 13:45:44,84.5,56,28.93,SE,128,2,6,38,0,,,0,weatherlink.com 1.10,2019-06-06 18:45:44,
2019-06-06 14:00:45,84.4,55,28.93,South,189,3,5,37,0,,,0,weatherlink.com 1.10,2019-06-06 19:00:45,
2019-06-06 14:15:46,84.6,56,28.93,West,278,4,6,37,0,,,0,weatherlink.com 1.10,2019-06-06 19:15:46,
2019-06-06 14:30:47,84.3,55,28.92,SSW,207,4,5,37,0,,,0,weatherlink.com 1.10,2019-06-06 19:30:47,
2019-06-06 14:45:48,85.1,55,28.92,SSW,204,3,6,36,0,,,0,weatherlink.com 1.10,2019-06-06 19:45:48,
2019-06-06 15:00:50,85.4,55,28.92,WSW,240,1,7,35,0,,,0,weatherlink.com 1.10,2019-06-06 20:00:50,
2019-06-06 15:15:51,85.9,55,28.92,WSW,238,4,5,35,0,,,0,weatherlink.com 1.10,2019-06-06 20:15:51,
2019-06-06 15:30:52,85.9,54,28.92,SW,228,4,9,33,0,,,0,weatherlink.com 1.10,2019-06-06 20:30:52,
2019-06-06 15:45:53,86.2,57,28.92,SSW,209,0,6,37,0,,,0,weatherlink.com 1.10,2019-06-06 20:45:53,
2019-06-06 16:00:54,86,53,28.92,ESE,110,3,5,32,0,,,0,weatherlink.com 1.10,2019-06-06 21:00:54,
2019-06-06 16:15:57,86.2,52,28.92,WSW,238,6,7,31,0,,,0,weatherlink.com 1.10,2019-06-06 21:15:57,
2019-06-06 16:30:57,86.9,55,28.91,SW,226,4,6,33,0,,,0,weatherlink.com 1.10,2019-06-06 21:30:57,
2019-06-06 16:45:57,86.8,55,28.91,WSW,249,6,7,34,0,,,0,weatherlink.com 1.10,2019-06-06 21:45:57,
2019-06-06 17:00:58,86.5,54,28.91,SSW,207,0,6,33,0,,,0,weatherlink.com 1.10,2019-06-06 22:00:58,
2019-06-06 17:15:59,86.6,51,28.91,WSW,242,1,7,29,0,,,0,weatherlink.com 1.10,2019-06-06 22:15:59,
2019-06-06 17:30:59,86.6,53,28.91,SW,218,1,5,32,0,,,0,weatherlink.com 1.10,2019-06-06 22:30:59,
2019-06-06 17:45:00,86.1,52,28.91,SW,221,2,5,31,0,,,0,weatherlink.com 1.10,2019-06-06 22:45:00,
2019-06-06 18:00:01,86.6,51,28.90,SSE,154,0,7,29,0,,,0,weatherlink.com 1.10,2019-06-06 23:00:01,
2019-06-06 18:15:02,86.6,53,28.90,SW,223,2,7,31,0,,,0,weatherlink.com 1.10,2019-06-06 23:15:02,
2019-06-06 18:30:02,87,54,28.90,SSW,203,2,3,32,0,,,0,weatherlink.com 1.10,2019-06-06 23:30:02,
2019-06-06 18:45:03,86.6,53,28.90,East,99,2,5,31,0,,,0,weatherlink.com 1.10,2019-06-06 23:45:03,
2019-06-06 19:00:04,86.4,52,28.90,WSW,257,0,3,30,0,,,0,weatherlink.com 1.10,2019-06-07 00:00:04,
2019-06-06 19:15:04,85,54,28.91,SW,224,1,7,34,0,,,0,weatherlink.com 1.10,2019-06-07 00:15:04,
2019-06-06 19:30:05,84.9,55,28.90,SW,217,0,2,36,0,,,0,weatherlink.com 1.10,2019-06-07 00:30:05,
2019-06-06 19:45:05,84.9,54,28.90,SW,235,0,1,35,0,,,0,weatherlink.com 1.10,2019-06-07 00:45:05,
2019-06-06 20:00:06,82.8,53,28.91,South,177,0,1,36,0,,,0,weatherlink.com 1.10,2019-06-07 01:00:06,
2019-06-06 20:15:06,81.2,53,28.91,SSE,160,0,0,38,0,,,0,weatherlink.com 1.10,2019-06-07 01:15:06,
2019-06-06 20:30:06,79.8,53,28.91,SSE,155,0,0,39,0,,,0,weatherlink.com 1.10,2019-06-07 01:30:06,
2019-06-06 20:45:07,78.8,54,28.91,SSE,155,0,0,42,0,,,0,weatherlink.com 1.10,2019-06-07 01:45:07,
2019-06-06 21:00:07,77.7,53,28.91,SSE,155,0,0,43,0,,,0,weatherlink.com 1.10,2019-06-07 02:00:07,
2019-06-06 21:15:08,76.7,54,28.91,SSE,155,0,0,45,0,,,0,weatherlink.com 1.10,2019-06-07 02:15:08,
2019-06-06 21:30:08,75.1,55,28.90,SSE,155,0,0,50,0,,,0,weatherlink.com 1.10,2019-06-07 02:30:08,
2019-06-06 21:45:08,73.4,57,28.91,SSE,155,0,0,56,0,,,0,weatherlink.com 1.10,2019-06-07 02:45:08,
2019-06-06 22:00:09,72.7,56,28.91,SSE,148,0,0,56,0,,,0,weatherlink.com 1.10,2019-06-07 03:00:09,
2019-06-06 22:15:09,72.2,56,28.92,SSE,148,0,0,57,0,,,0,weatherlink.com 1.10,2019-06-07 03:15:09,
2019-06-06 22:30:10,71.9,55,28.92,ESE,110,0,1,55,0,,,0,weatherlink.com 1.10,2019-06-07 03:30:10,
2019-06-06 22:45:10,71.7,55,28.91,SE,128,0,0,55,0,,,0,weatherlink.com 1.10,2019-06-07 03:45:10,
2019-06-06 23:00:11,70.5,55,28.92,SE,128,0,0,58,0,,,0,weatherlink.com 1.10,2019-06-07 04:00:11,
2019-06-06 23:15:11,69.2,55,28.92,SE,128,0,0,60,0,,,0,weatherlink.com 1.10,2019-06-07 04:15:11,
2019-06-06 23:30:12,68.4,55,28.91,SE,128,0,0,62,0,,,0,weatherlink.com 1.10,2019-06-07 04:30:12,
2019-06-06 23:45:13,68.4,55,28.92,SE,128,0,0,63,0,,,0,weatherlink.com 1.10,2019-06-07 04:45:13,